Latest Weather Observations for Swanbourne

IDW60801

Issued at 12:34 pm WST Friday 23 August 2019 (issued every 10 minutes, with the page automatically refreshed every 10 minutes)

About weather observations | Map of weather stations | Latest weather observations for WA | Other Formats
Station Details ID: 009215 Name: SWANBOURNE Lat: -31.96 Lon: 115.76 Height: 40.96 m
Data from the previous 72 hours. | See also: Recent months at Swanbourne
Date/Time
WST
Temp
°C
App
Temp
°C
Dew
Point
°C
Rel
Hum
%
Delta-T
°C
Wind Press
QNH
hPa
Press
MSL
hPa
Rain since
9am
mm
Dir  Spd
km/h
Gust
km/h
Spd
kts
Gust
kts
23/12:30pm 14.5 10.3 9.7 73 2.5 SSW 22 35 12 19 - - 0.4
23/12:00pm 13.4 9.8 13.1 98 0.2 S 24 41 13 22 - - 0.4
23/11:38am 13.3 8.9 12.8 97 0.3 SW 28 50 15 27 - - 0.4
23/11:30am 13.2 9.4 12.3 94 0.5 WSW 24 35 13 19 - - 0.4
23/11:00am 13.2 9.5 10.2 82 1.6 SW 20 33 11 18 - - 0.0
23/10:30am 14.1 8.4 8.5 69 2.8 SW 28 43 15 23 - - 0.0
23/10:00am 14.6 8.2 6.9 60 3.8 SW 30 43 16 23 - - 0.0
23/09:30am 14.7 11.0 8.0 64 3.3 WSW 17 28 9 15 - - 0.0
23/09:00am 13.8 7.1 7.3 65 3.2 SW 32 50 17 27 - - 16.0
23/08:56am 14.0 8.3 8.4 69 2.8 SW 28 50 15 27 - - 16.0
23/08:30am 13.4 7.1 9.6 78 1.9 SW 33 48 18 26 - - 16.0
23/08:16am 14.5 8.8 8.2 66 3.2 SW 28 50 15 27 - - 16.0
23/08:00am 14.1 8.7 8.1 67 3.0 SW 26 41 14 22 - - 16.0
23/07:30am 12.6 9.6 9.4 81 1.6 WSW 15 22 8 12 - - 16.0
23/07:08am 13.9 8.3 8.7 71 2.6 SW 28 46 15 25 - - 16.0
23/07:00am 13.8 8.5 8.6 71 2.6 WSW 26 39 14 21 - - 16.0
23/06:30am 13.2 8.1 9.3 77 2.0 W 26 37 14 20 - - 16.0
23/06:00am 13.6 9.4 9.6 77 2.1 SW 22 35 12 19 - - 16.0
23/05:30am 13.9 7.3 6.0 59 3.8 SW 30 46 16 25 - - 16.0
23/05:00am 13.8 7.5 5.7 58 3.8 SW 28 39 15 21 - - 16.0
23/04:30am 13.8 6.8 6.7 62 3.4 SW 33 44 18 24 - - 16.0
23/04:05am 13.0 6.5 10.5 85 1.3 SW 35 56 19 30 - - 16.0
23/04:00am 13.2 5.6 10.6 84 1.4 SW 41 56 22 30 - - 16.0
23/03:47am 13.6 8.1 12.3 92 0.7 SW 33 54 18 29 - - 16.0
23/03:39am 13.1 10.2 12.8 98 0.2 SW 20 44 11 24 - - 15.8
23/03:30am 12.5 11.1 12.3 99 0.1 SSW 11 17 6 9 - - 15.8
23/03:00am 11.8 10.2 11.6 99 0.1 SSW 11 19 6 10 - - 15.4
23/02:30am 12.8 9.8 12.6 99 0.1 SSW 20 32 11 17 - - 14.6
23/02:00am 13.1 12.7 12.9 99 0.1 S 7 17 4 9 - - 13.8
23/01:30am 13.0 12.5 12.8 99 0.1 WSW 7 13 4 7 - - 12.8
23/01:00am 12.5 11.5 12.2 98 0.2 SW 9 13 5 7 - - 12.2
23/12:30am 13.3 11.0 13.0 98 0.2 WSW 17 26 9 14 - - 9.6
23/12:00am 13.5 9.6 13.2 98 0.2 SW 26 41 14 22 - - 9.2
 
Date/Time
WST
Temp
°C
App
Temp
°C
Dew
Point
°C
Rel
Hum
%
Delta-T
°C
Wind Press
QNH
hPa
Press
MSL
hPa
Rain since
9am
mm
Dir  Spd
km/h
Gust
km/h
Spd
kts
Gust
kts
22/11:30pm 14.2 10.1 13.9 98 0.2 SW 28 37 15 20 - - 9.0
22/11:00pm 13.9 8.8 13.7 99 0.1 WSW 33 56 18 30 - - 9.0
22/10:50pm 14.1 10.0 13.9 99 0.1 SW 28 50 15 27 - - 9.0
22/10:30pm 13.6 9.0 13.4 99 0.1 WSW 30 43 16 23 - - 8.8
22/10:04pm 14.0 10.0 14.0 100 0.0 WSW 28 50 15 27 - - 8.6
22/10:00pm 14.0 10.0 14.0 100 0.0 SW 28 43 15 23 - - 8.6
22/09:33pm 14.3 10.3 14.1 99 0.1 SW 28 50 15 27 - - 8.0
22/09:30pm 14.4 11.3 14.4 100 0.0 SW 24 35 13 19 - - 8.0
22/09:00pm 15.3 12.5 15.3 100 0.0 SW 24 33 13 18 - - 8.0
22/08:30pm 15.9 13.7 15.9 100 0.0 SW 22 35 12 19 - - 7.8
22/08:00pm 16.1 13.6 16.1 100 0.0 WSW 24 35 13 19 - - 7.8
22/07:30pm 16.3 14.8 16.3 100 0.0 WSW 19 28 10 15 - - 7.8
22/07:19pm 16.8 14.6 16.8 100 0.0 NW 24 48 13 26 - - 7.2
22/07:00pm 16.9 13.9 16.9 100 0.0 N 28 43 15 23 - - 6.0
22/06:30pm 17.3 15.6 17.3 100 0.0 NW 22 33 12 18 - - 4.2
22/06:00pm 16.5 14.5 16.5 100 0.0 NNW 22 35 12 19 - - 4.0
22/05:30pm 17.9 16.9 17.6 98 0.2 NNW 19 26 10 14 - - 0.6
22/05:00pm 18.6 17.3 16.8 89 1.1 NNW 19 28 10 15 - - 0.0
22/04:30pm 19.3 17.1 16.0 81 2.0 NNW 22 32 12 17 - - 0.0
22/04:00pm 20.3 17.2 15.7 75 2.7 NNW 26 37 14 20 - - 0.0
22/03:30pm 20.5 17.7 14.2 67 3.7 NNW 22 35 12 19 - - 0.0
22/03:00pm 20.8 16.4 13.0 61 4.4 NW 28 37 15 20 - - 0.0
22/02:30pm 21.0 15.1 11.1 53 5.5 NW 33 44 18 24 - - 0.0
22/02:00pm 20.5 16.8 11.4 56 5.0 NW 22 30 12 16 - - 0.0
22/01:30pm 20.8 17.1 11.4 55 5.2 WNW 22 30 12 16 - - 0.0
22/01:00pm 23.3 17.3 3.3 27 9.7 NNW 24 35 13 19 - - 0.0
22/12:30pm 24.0 17.4 -0.3 20 11.0 N 24 37 13 20 - - 0.0
22/12:00pm 24.0 18.1 -1.0 19 11.2 NNW 20 32 11 17 - - 0.0
22/11:30am 23.9 17.6 -4.3 15 11.9 N 20 35 11 19 - - 0.0
22/11:00am 23.1 17.5 -2.5 18 11.1 N 17 24 9 13 - - 0.0
22/10:30am 21.7 16.6 -1.6 21 10.1 NNE 15 22 8 12 - - 0.0
22/10:00am 20.6 15.8 0.4 26 9.1 NNE 15 24 8 13 - - 0.0
22/09:30am 18.9 14.4 0.0 28 8.3 NNE 13 22 7 12 - - 0.0
22/09:00am 17.1 11.3 -1.5 28 7.8 NE 19 24 10 13 - - 0.0
22/08:30am 15.9 10.8 -2.1 29 7.3 NE 15 28 8 15 - - 0.0
22/08:00am 15.0 9.8 -2.9 29 7.1 NNE 15 22 8 12 - - 0.0
22/07:30am 14.3 9.0 -3.5 29 6.9 NNE 15 26 8 14 - - 0.0
22/07:00am 13.9 7.8 -3.8 29 6.8 NNE 19 28 10 15 - - 0.0
22/06:30am 13.6 8.3 -3.6 30 6.6 NNE 15 26 8 14 - - 0.0
22/06:00am 14.0 8.7 -3.3 30 6.7 NNE 15 22 8 12 - - 0.0
22/05:30am 14.2 8.6 -3.1 30 6.8 NNE 17 26 9 14 - - 0.0
22/05:00am 13.9 8.7 -2.9 31 6.6 N 15 22 8 12 - - 0.0
22/04:30am 14.2 8.6 -3.1 30 6.8 NNE 17 28 9 15 - - 0.0
22/04:00am 13.4 9.1 -1.7 35 6.1 N 11 20 6 11 - - 0.0
22/03:30am 12.5 8.2 -1.8 37 5.7 NNE 11 20 6 11 - - 0.0
22/03:00am 12.4 8.2 -0.8 40 5.3 N 11 17 6 9 - - 0.0
22/02:30am 12.8 8.3 -0.4 40 5.4 NNE 13 17 7 9 - - 0.0
22/02:00am 13.4 10.0 -0.6 38 5.8 N 7 11 4 6 - - 0.0
22/01:30am 14.0 9.9 -0.4 37 6.0 N 11 13 6 7 - - 0.0
22/01:00am 14.5 11.5 0.7 39 5.9 N 6 9 3 5 - - 0.0
22/12:30am 13.5 9.2 0.9 42 5.4 NE 13 22 7 12 - - 0.0
22/12:00am 13.8 8.8 1.1 42 5.4 ENE 17 22 9 12 - - 0.0
 
Date/Time
WST
Temp
°C
App
Temp
°C
Dew
Point
°C
Rel
Hum
%
Delta-T
°C
Wind Press
QNH
hPa
Press
MSL
hPa
Rain since
9am
mm
Dir  Spd
km/h
Gust
km/h
Spd
kts
Gust
kts
21/11:30pm 14.6 9.6 1.2 40 5.8 ENE 17 22 9 12 - - 0.0
21/11:00pm 14.6 9.7 2.2 43 5.5 ENE 17 22 9 12 - - 0.0
21/10:30pm 14.5 9.4 3.0 46 5.2 ENE 19 22 10 12 - - 0.0
21/10:00pm 14.2 9.5 3.4 48 4.9 ENE 17 20 9 11 - - 0.0
21/09:30pm 14.2 10.0 3.7 49 4.8 ENE 15 19 8 10 - - 0.0
21/09:00pm 14.6 10.4 3.7 48 5.0 ENE 15 19 8 10 - - 0.0
21/08:30pm 14.9 11.0 3.4 46 5.2 ENE 13 15 7 8 - - 0.0
21/08:00pm 15.5 11.9 3.0 43 5.7 ENE 11 13 6 7 - - 0.0
21/07:30pm 16.4 12.7 2.4 39 6.3 ENE 11 13 6 7 - - 0.0
21/07:00pm 17.1 13.7 1.9 36 6.8 ENE 9 9 5 5 - - 0.0
21/06:30pm 18.1 14.7 2.0 34 7.3 NE 9 9 5 5 - - 0.0
21/06:00pm 19.9 17.0 1.4 29 8.4 NE 6 9 3 5 - - 0.0
21/05:30pm 21.3 18.3 2.1 28 8.9 NE 7 13 4 7 - - 0.0
21/05:00pm 22.4 19.0 2.0 26 9.6 NE 9 17 5 9 - - 0.0
21/04:30pm 23.1 20.1 2.0 25 9.9 NE 7 13 4 7 - - 0.0
21/04:00pm 23.6 20.6 1.9 24 10.3 NNE 7 13 4 7 - - 0.0
21/03:30pm 24.1 21.1 1.7 23 10.6 NNE 7 17 4 9 - - 0.0
21/03:00pm 23.5 19.3 -0.7 20 10.9 NNE 11 20 6 11 - - 0.0
21/02:30pm 23.9 21.4 3.8 27 9.9 N 6 13 3 7 - - 0.0
21/02:00pm 22.3 19.3 3.9 30 8.9 NW 9 13 5 7 - - 0.0
21/01:30pm 23.4 19.2 1.7 24 10.2 N 13 19 7 10 - - 0.0
21/01:00pm 22.5 17.8 0.9 24 9.9 NNE 15 20 8 11 - - 0.0
21/12:30pm 22.2 17.1 0.7 24 9.8 NNE 17 28 9 15 - - 0.0
21/12:00pm 21.6 16.5 0.8 25 9.5 N 17 28 9 15 - - 0.0
21/11:30am 21.3 16.0 1.6 27 9.1 N 19 35 10 19 - - 0.0
21/11:00am 20.8 15.3 0.6 26 9.1 N 19 39 10 21 - - 0.0
21/10:30am 19.8 16.2 3.1 33 7.8 NNW 11 17 6 9 - - 0.0
21/10:00am 18.9 14.7 1.9 32 7.7 NNE 13 22 7 12 - - 0.0
21/09:30am 17.6 13.4 1.6 34 7.2 NE 13 22 7 12 - - 0.0
21/09:00am 16.5 12.3 1.8 37 6.5 NE 13 22 7 12 - - 0.0
21/08:30am 15.0 11.6 1.9 41 5.8 NE 9 13 5 7 - - 0.0
21/08:00am 13.5 8.9 1.5 44 5.2 ENE 15 19 8 10 - - 0.0
21/07:30am 11.7 6.7 1.4 49 4.4 ENE 17 24 9 13 - - 0.0
21/07:00am 10.5 5.9 1.6 54 3.7 ENE 15 20 8 11 - - 0.0
21/06:30am 10.9 5.9 1.4 52 4.0 ENE 17 20 9 11 - - 0.0
21/06:00am 11.1 5.8 1.6 52 4.0 ENE 19 28 10 15 - - 0.0
21/05:30am 10.4 5.6 2.5 58 3.4 ENE 17 22 9 12 - - 0.0
21/05:00am 10.6 5.8 2.7 58 3.4 ENE 17 20 9 11 - - 0.0
21/04:30am 11.0 6.6 2.8 57 3.6 ENE 15 22 8 12 - - 0.0
21/04:00am 11.2 6.6 3.5 59 3.4 ENE 17 22 9 12 - - 0.0
21/03:30am 11.1 6.4 3.4 59 3.4 ENE 17 20 9 11 - - 0.0
21/03:00am 10.9 6.7 3.7 61 3.2 ENE 15 19 8 10 - - 0.0
21/02:30am 12.1 8.6 3.3 55 3.9 E 11 15 6 8 - - 0.0
21/02:00am 12.4 8.5 3.6 55 3.9 ENE 13 15 7 8 - - 0.0
21/01:30am 12.6 8.8 3.8 55 4.0 E 13 17 7 9 - - 0.0
21/01:00am 13.0 8.8 3.7 53 4.2 E 15 19 8 10 - - 0.0
21/12:30am 12.5 8.8 4.2 57 3.8 E 13 17 7 9 - - 0.0
21/12:00am 12.6 9.1 5.5 62 3.3 E 13 15 7 8 - - 0.0
 
Date/Time
WST
Temp
°C
App
Temp
°C
Dew
Point
°C
Rel
Hum
%
Delta-T
°C
Wind Press
QNH
hPa
Press
MSL
hPa
Rain since
9am
mm
Dir  Spd
km/h
Gust
km/h
Spd
kts
Gust
kts
20/11:30pm 11.9 8.8 7.2 73 2.3 E 13 17 7 9 - - 0.0
20/11:00pm 11.1 8.0 7.2 77 1.9 ENE 13 15 7 8 - - 0.0
20/10:30pm 11.9 9.2 7.2 73 2.3 E 11 13 6 7 - - 0.0
20/10:00pm 13.3 10.9 8.6 73 2.4 ESE 11 15 6 8 - - 0.0
20/09:30pm 13.7 11.9 9.4 75 2.2 ESE 9 11 5 6 - - 0.0
20/09:00pm 14.1 12.3 9.5 74 2.4 E 9 11 5 6 - - 0.0
20/08:30pm 14.5 12.6 8.9 69 2.8 E 9 11 5 6 - - 0.0
20/08:00pm 14.4 12.3 9.6 73 2.5 E 11 11 6 6 - - 0.0
20/07:30pm 15.5 13.5 10.3 71 2.7 ESE 11 13 6 7 - - 0.0
20/07:00pm 15.0 13.5 10.4 74 2.4 ESE 9 11 5 6 - - 0.0
20/06:30pm 15.6 14.0 8.8 64 3.5 SE 7 9 4 5 - - 0.0
20/06:00pm 16.5 15.6 9.2 62 3.8 SE 4 7 2 4 - - 0.0
20/05:30pm 17.6 16.8 10.9 65 3.6 S 6 9 3 5 - - 0.0
20/05:00pm 18.2 16.5 11.3 64 3.8 SSW 11 17 6 9 - - 0.0
20/04:30pm 18.7 16.9 10.8 60 4.3 SSW 11 15 6 8 - - 0.0
20/04:00pm 19.1 17.6 10.4 57 4.7 SSW 9 15 5 8 - - 0.0
20/03:30pm 19.4 17.3 9.9 54 5.1 SW 11 15 6 8 - - 0.0
20/03:00pm 20.3 18.4 9.2 49 5.9 SW 9 15 5 8 - - 0.0
20/02:30pm 20.5 18.7 7.8 44 6.6 SW 7 11 4 6 - - 0.0
20/02:00pm 21.7 19.2 3.9 31 8.6 ESE 6 9 3 5 - - 0.0
20/01:30pm 20.9 18.1 3.2 31 8.4 ENE 7 19 4 10 - - 0.0
20/01:00pm 21.1 18.2 4.6 34 8.1 ENE 9 15 5 8 - - 0.0

Other formats

Comma delimited format used in spreadsheet applications
http://www.bom.gov.au/fwo/IDW60801/IDW60801.94614.axf

JavaScript Object Notation format (JSON) in row-major order
http://www.bom.gov.au/fwo/IDW60801/IDW60801.94614.json

Data quality

Most of these data are generated automatically and are frequently updated. Quality checks on data are not normally performed. It is possible for incorrect values to appear. Refer to information at About Latest Weather Observations and please check the disclaimer before using these data.